Aurelia, Iowa
Current Conditions -  °F | °C
As of 4:15 PM on Thursday 18 Dec 2014 (Local Time) from KCKP Reporting Station
Overcast Overcast  
Wind Chill: 28°   Ceiling: 2600
Heat Index: 28°   Visibility: 10mi
Dew Point: 24°   Wind: 3mph
Humidity: 84%   Direction: 180°S
Pressure: 30.2"   Gusts: NA
Location:  42.71°N, 95.44°W
Report Text: KCKP 182215Z AUTO 18003KT 10SM SCT015 OVC026 M02/M04 A3020 RMK AO2 T10211045
Loading
Personal Weather Stations






























Interactive Weather Map New forecast layout! Learn more

10-Day Weather Forecast

Advertisements
Track Severe Weather on mobile